Time;durP1;ratioP1;P1;durP2;ratioP2;P2;SDS_P1;SDS_P2;PMS_P1;PMS_P2;Temp;Humidity;BMP_temperature;BMP_pressure;BME280_temperature;BME280_humidity;BME280_pressure;Samples;Min_cycle;Max_cycle;Signal;HPM_P1;HPM_P2
2021/03/06 00:00:31;;;;;;;;;;;21.00;95.30;;;;;;5033563;28;19913;-82
2021/03/06 00:02:57;;;;;;;;;;;21.20;95.10;;;;;;5033281;28;19909;-82
2021/03/06 00:05:25;;;;;;;;;;;21.30;95.00;;;;;;5032855;28;20229;-82
2021/03/06 00:07:52;;;;;;;;;;;21.30;95.40;;;;;;5033757;28;19916;-86
2021/03/06 00:10:18;;;;;;;;;;;21.40;95.10;;;;;;5034162;28;19920;-88
2021/03/06 00:12:47;;;;;;;;;;;21.20;94.70;;;;;;5033706;28;19916;-86
2021/03/06 00:15:18;;;;;;;;;;;21.20;95.00;;;;;;5032498;28;20008;-87
2021/03/06 00:17:45;;;;;;;;;;;21.40;94.80;;;;;;5033659;28;19909;-84
2021/03/06 00:20:11;;;;;;;;;;;21.30;94.40;;;;;;5033766;28;19909;-84
2021/03/06 00:22:38;;;;;;;;;;;21.40;94.20;;;;;;5033374;28;20379;-82
2021/03/06 00:25:06;;;;;;;;;;;21.50;94.60;;;;;;5033339;28;20323;-83
2021/03/06 00:27:33;;;;;;;;;;;21.60;93.90;;;;;;5033180;28;19909;-82
2021/03/06 00:29:59;;;;;;;;;;;21.60;93.80;;;;;;5042663;28;19909;-83
2021/03/06 00:32:26;;;;;;;;;;;21.70;93.40;;;;;;5053416;28;19958;-83
2021/03/06 00:34:53;;;;;;;;;;;21.60;93.90;;;;;;5054187;28;19971;-83
2021/03/06 00:37:19;;;;;;;;;;;21.60;94.50;;;;;;5054384;28;19916;-81
2021/03/06 00:39:46;;;;;;;;;;;21.70;94.00;;;;;;5053476;28;20476;-82
2021/03/06 00:42:13;;;;;;;;;;;21.60;93.60;;;;;;5053078;28;19916;-83
2021/03/06 00:44:39;;;;;;;;;;;21.50;93.90;;;;;;5052221;28;19931;-83
2021/03/06 00:47:06;;;;;;;;;;;21.40;93.70;;;;;;5051908;28;20290;-83
2021/03/06 00:49:33;;;;;;;;;;;21.40;93.80;;;;;;5064713;28;19924;-84
2021/03/06 00:52:01;;;;;;;;;;;21.40;93.80;;;;;;5062191;28;20371;-84
2021/03/06 00:54:27;;;;;;;;;;;21.40;93.70;;;;;;5053383;28;19916;-84
2021/03/06 00:56:54;;;;;;;;;;;21.40;93.60;;;;;;5063511;28;19909;-83
2021/03/06 00:59:21;;;;;;;;;;;21.40;94.10;;;;;;5071603;28;19930;-83
2021/03/06 01:01:47;;;;;;;;;;;21.30;93.50;;;;;;5064819;28;19908;-83
2021/03/06 01:04:14;;;;;;;;;;;21.20;93.70;;;;;;5055630;28;19923;-83
2021/03/06 01:06:41;;;;;;;;;;;21.40;94.00;;;;;;5054066;28;20016;-83
2021/03/06 01:09:08;;;;;;;;;;;21.60;93.30;;;;;;5053998;28;20308;-83
2021/03/06 01:11:35;;;;;;;;;;;21.70;93.30;;;;;;5053819;28;19908;-82
2021/03/06 01:14:02;;;;;;;;;;;21.80;92.50;;;;;;5053729;28;20453;-83
2021/03/06 01:16:28;;;;;;;;;;;21.70;92.70;;;;;;5053890;28;20363;-83
2021/03/06 01:18:55;;;;;;;;;;;21.90;92.80;;;;;;5058621;28;19941;-83
2021/03/06 01:21:22;;;;;;;;;;;21.80;92.00;;;;;;5059051;28;19909;-82
2021/03/06 01:23:49;;;;;;;;;;;21.80;92.60;;;;;;5057678;28;19909;-83
2021/03/06 01:26:15;;;;;;;;;;;21.90;92.40;;;;;;5059829;28;19925;-83
2021/03/06 01:28:42;;;;;;;;;;;22.00;92.10;;;;;;5058105;28;19913;-83
2021/03/06 01:31:09;;;;;;;;;;;22.00;92.10;;;;;;5036743;28;19958;-84
2021/03/06 01:33:35;;;;;;;;;;;21.90;92.10;;;;;;5053665;28;20007;-83
2021/03/06 01:36:02;;;;;;;;;;;21.90;91.70;;;;;;5035857;28;19913;-84
2021/03/06 01:38:29;;;;;;;;;;;21.90;90.80;;;;;;5053547;28;19909;-83
2021/03/06 01:40:56;;;;;;;;;;;21.80;91.10;;;;;;5053495;28;19912;-83
2021/03/06 01:43:22;;;;;;;;;;;21.70;91.70;;;;;;5057418;28;19909;-84
2021/03/06 01:45:49;;;;;;;;;;;21.80;91.80;;;;;;5057007;28;19916;-84
2021/03/06 01:48:16;;;;;;;;;;;21.90;92.10;;;;;;5056740;28;20384;-84
2021/03/06 01:50:43;;;;;;;;;;;22.00;91.60;;;;;;5057031;28;19913;-84
2021/03/06 01:53:11;;;;;;;;;;;22.00;91.30;;;;;;5038917;28;20256;-85
2021/03/06 01:55:41;;;;;;;;;;;22.00;91.10;;;;;;5058288;28;19909;-85
2021/03/06 01:58:08;;;;;;;;;;;21.90;91.40;;;;;;5057879;28;19916;-84
2021/03/06 02:00:34;;;;;;;;;;;21.90;91.90;;;;;;5057326;28;20266;-87
2021/03/06 02:03:01;;;;;;;;;;;21.80;91.90;;;;;;5056516;28;19913;-83
2021/03/06 02:05:29;;;;;;;;;;;21.80;92.10;;;;;;5055494;28;19939;-82
2021/03/06 02:07:56;;;;;;;;;;;21.70;91.80;;;;;;5036137;28;19920;-82
2021/03/06 02:10:28;;;;;;;;;;;21.70;92.20;;;;;;5036798;28;20332;-83
2021/03/06 02:13:01;;;;;;;;;;;21.70;92.40;;;;;;5036652;28;20011;-81
2021/03/06 02:15:31;;;;;;;;;;;21.90;92.30;;;;;;5019056;28;19909;-86
2021/03/06 02:18:00;;;;;;;;;;;21.90;91.70;;;;;;5036484;28;20008;-84
2021/03/06 02:20:45;;;;;;;;;;;21.80;91.90;;;;;;5036661;28;19917;-83
2021/03/06 02:23:24;;;;;;;;;;;21.90;92.60;;;;;;5054614;28;19913;-84
2021/03/06 02:25:51;;;;;;;;;;;21.90;92.10;;;;;;5035969;28;19920;-83
2021/03/06 02:28:29;;;;;;;;;;;21.90;91.30;;;;;;5056031;28;20003;-84
2021/03/06 02:30:57;;;;;;;;;;;21.70;91.40;;;;;;5055626;28;19935;-84
2021/03/06 02:33:30;;;;;;;;;;;21.70;91.30;;;;;;5055599;28;19909;-82
2021/03/06 02:35:57;;;;;;;;;;;21.70;91.80;;;;;;5055962;28;19963;-85
2021/03/06 02:38:26;;;;;;;;;;;21.80;91.90;;;;;;5055172;28;19909;-80
2021/03/06 02:40:53;;;;;;;;;;;21.80;91.30;;;;;;5037096;28;20404;-84
2021/03/06 02:43:20;;;;;;;;;;;21.90;91.60;;;;;;5055985;28;20227;-84
2021/03/06 02:45:48;;;;;;;;;;;21.80;91.20;;;;;;5055790;28;19939;-84
2021/03/06 02:48:14;;;;;;;;;;;21.80;91.80;;;;;;5069852;28;19980;-85
2021/03/06 02:50:41;;;;;;;;;;;21.80;91.80;;;;;;5074510;28;19940;-83
2021/03/06 02:53:08;;;;;;;;;;;22.00;91.90;;;;;;5053486;28;19910;-82
2021/03/06 02:55:37;;;;;;;;;;;22.10;91.10;;;;;;5056951;28;19908;-82
2021/03/06 02:58:12;;;;;;;;;;;22.20;91.10;;;;;;5078431;28;19912;-79
2021/03/06 03:00:42;;;;;;;;;;;22.30;90.90;;;;;;5076225;28;19919;-82
2021/03/06 03:03:11;;;;;;;;;;;22.40;90.20;;;;;;5075372;28;19915;-81
2021/03/06 03:05:56;;;;;;;;;;;22.30;90.50;;;;;;5075080;28;19921;-81
2021/03/06 03:08:31;;;;;;;;;;;22.50;90.40;;;;;;5075351;28;19922;-81
2021/03/06 03:11:01;;;;;;;;;;;22.70;90.40;;;;;;5074252;28;19912;-82
2021/03/06 03:13:54;;;;;;;;;;;22.70;90.80;;;;;;5074204;28;20498;-82
2021/03/06 03:16:29;;;;;;;;;;;22.70;87.40;;;;;;5065150;28;19991;-83
2021/03/06 03:18:58;;;;;;;;;;;22.70;88.50;;;;;;5078909;28;19912;-81
2021/03/06 03:21:27;;;;;;;;;;;22.60;87.90;;;;;;5069810;28;19913;-82
2021/03/06 03:23:57;;;;;;;;;;;22.60;87.30;;;;;;5052955;28;20429;-81
2021/03/06 03:26:25;;;;;;;;;;;22.50;87.10;;;;;;5054463;28;19920;-81
2021/03/06 03:28:53;;;;;;;;;;;22.50;86.50;;;;;;5055010;28;19916;-81
2021/03/06 03:31:20;;;;;;;;;;;22.60;88.20;;;;;;5053943;28;19909;-80
2021/03/06 03:33:47;;;;;;;;;;;22.70;86.60;;;;;;5055004;28;19942;-82
2021/03/06 03:36:15;;;;;;;;;;;22.80;88.60;;;;;;5054551;28;20394;-83
2021/03/06 03:38:44;;;;;;;;;;;23.00;88.10;;;;;;5054810;28;19922;-82
2021/03/06 03:41:11;;;;;;;;;;;23.10;88.00;;;;;;5054664;28;19999;-83
2021/03/06 03:43:38;;;;;;;;;;;23.10;86.90;;;;;;5054287;28;19913;-82
2021/03/06 03:46:05;;;;;;;;;;;23.10;87.30;;;;;;5054229;28;19963;-84
2021/03/06 03:48:32;;;;;;;;;;;23.10;87.00;;;;;;5053669;28;19916;-86
2021/03/06 03:51:01;;;;;;;;;;;23.20;87.70;;;;;;5054194;28;20015;-82
2021/03/06 03:53:28;;;;;;;;;;;23.20;87.10;;;;;;5053663;28;19909;-83
2021/03/06 03:55:55;;;;;;;;;;;23.10;86.80;;;;;;5057333;28;19944;-80
2021/03/06 03:58:22;;;;;;;;;;;23.10;85.90;;;;;;5060597;28;20286;-82
2021/03/06 04:00:54;;;;;;;;;;;23.00;86.20;;;;;;5052449;28;19954;-80
2021/03/06 04:03:21;;;;;;;;;;;22.90;87.00;;;;;;5060261;28;19909;-80
2021/03/06 04:05:48;;;;;;;;;;;22.60;86.90;;;;;;5059936;28;19928;-80
2021/03/06 04:08:14;;;;;;;;;;;22.50;87.50;;;;;;5056778;28;20422;-80
2021/03/06 04:10:41;;;;;;;;;;;22.60;86.70;;;;;;5053714;28;19927;-80
2021/03/06 04:13:09;;;;;;;;;;;22.60;88.10;;;;;;5053157;28;19909;-81
2021/03/06 04:15:37;;;;;;;;;;;22.60;87.50;;;;;;5052549;28;19912;-81
2021/03/06 04:18:04;;;;;;;;;;;22.70;86.90;;;;;;5071744;28;20263;-81
2021/03/06 04:20:31;;;;;;;;;;;22.70;86.90;;;;;;5073728;28;19908;-82
2021/03/06 04:22:58;;;;;;;;;;;22.80;87.80;;;;;;5073265;28;19920;-84
2021/03/06 04:25:25;;;;;;;;;;;22.80;85.60;;;;;;5055016;28;19924;-84
2021/03/06 04:27:52;;;;;;;;;;;22.80;86.80;;;;;;5072518;28;20327;-82
2021/03/06 04:30:19;;;;;;;;;;;22.90;85.60;;;;;;5073134;28;19916;-81
2021/03/06 04:32:45;;;;;;;;;;;23.10;85.50;;;;;;5072988;28;19913;-90
2021/03/06 04:35:13;;;;;;;;;;;23.10;84.00;;;;;;5074032;28;20347;-81
2021/03/06 04:37:40;;;;;;;;;;;22.90;85.60;;;;;;5069227;28;19936;-83
2021/03/06 04:40:08;;;;;;;;;;;22.90;88.00;;;;;;5074042;28;19908;-80
2021/03/06 04:42:35;;;;;;;;;;;22.60;88.30;;;;;;5086212;28;19914;-83
2021/03/06 04:45:02;;;;;;;;;;;22.50;89.20;;;;;;5075181;28;19916;-84
2021/03/06 04:47:28;;;;;;;;;;;22.70;89.20;;;;;;5055175;28;19913;-83
2021/03/06 04:49:55;;;;;;;;;;;22.70;89.50;;;;;;5072846;28;19930;-84
2021/03/06 04:52:22;;;;;;;;;;;22.70;89.50;;;;;;5072856;28;20015;-82
2021/03/06 04:54:49;;;;;;;;;;;22.50;90.10;;;;;;5073364;28;19908;-87
2021/03/06 04:57:15;;;;;;;;;;;22.40;90.50;;;;;;5073426;28;20003;-83
2021/03/06 04:59:43;;;;;;;;;;;22.40;90.50;;;;;;5073485;28;19930;-83
2021/03/06 05:02:10;;;;;;;;;;;22.40;90.10;;;;;;5073404;28;20465;-86
2021/03/06 05:04:37;;;;;;;;;;;22.30;89.90;;;;;;5072879;28;20282;-84
2021/03/06 05:07:03;;;;;;;;;;;22.30;90.30;;;;;;5073190;28;20267;-83
2021/03/06 05:09:30;;;;;;;;;;;22.40;90.80;;;;;;5073517;28;20270;-87
2021/03/06 05:11:57;;;;;;;;;;;22.50;90.20;;;;;;5077839;28;20370;-83
2021/03/06 05:14:23;;;;;;;;;;;22.50;91.10;;;;;;5071975;28;19980;-83
2021/03/06 05:16:50;;;;;;;;;;;22.50;91.00;;;;;;5072407;28;19909;-84
2021/03/06 05:19:17;;;;;;;;;;;22.50;90.30;;;;;;5072830;28;20003;-84
2021/03/06 05:21:44;;;;;;;;;;;22.40;90.30;;;;;;5051172;28;19909;-86
2021/03/06 05:24:11;;;;;;;;;;;22.30;91.10;;;;;;5035008;28;19916;-87
2021/03/06 05:26:37;;;;;;;;;;;22.30;91.10;;;;;;5052970;28;19917;-84
2021/03/06 05:29:04;;;;;;;;;;;22.50;91.30;;;;;;5062778;28;19962;-83
2021/03/06 05:31:31;;;;;;;;;;;22.50;91.00;;;;;;5072353;28;19908;-87
2021/03/06 05:33:58;;;;;;;;;;;22.40;91.00;;;;;;5072407;28;19909;-85
2021/03/06 05:36:25;;;;;;;;;;;22.40;91.30;;;;;;5072674;28;19909;-85
2021/03/06 05:38:53;;;;;;;;;;;22.40;91.30;;;;;;5080168;28;19999;-82
2021/03/06 05:41:23;;;;;;;;;;;22.40;91.40;;;;;;5058517;28;19935;-86
2021/03/06 05:43:53;;;;;;;;;;;22.50;91.20;;;;;;5052042;28;20310;-84
2021/03/06 05:46:19;;;;;;;;;;;22.50;91.40;;;;;;5035129;28;20371;-88
2021/03/06 05:48:46;;;;;;;;;;;22.40;91.70;;;;;;5052838;28;20029;-85
2021/03/06 05:51:13;;;;;;;;;;;22.30;91.90;;;;;;5052697;28;19909;-88
2021/03/06 05:53:41;;;;;;;;;;;22.20;92.30;;;;;;5034793;28;19963;-89
2021/03/06 05:56:17;;;;;;;;;;;22.10;92.50;;;;;;5034942;28;19913;-91
2021/03/06 05:58:46;;;;;;;;;;;21.90;92.60;;;;;;5033858;28;20363;-89
2021/03/06 06:01:13;;;;;;;;;;;21.70;92.60;;;;;;5052253;28;20000;-87
2021/03/06 06:03:41;;;;;;;;;;;21.70;93.00;;;;;;5053298;28;19936;-88
2021/03/06 06:06:09;;;;;;;;;;;21.80;93.00;;;;;;5052905;28;20004;-89
2021/03/06 06:08:39;;;;;;;;;;;21.90;92.60;;;;;;5052320;28;19913;-87
2021/03/06 06:11:07;;;;;;;;;;;21.90;92.40;;;;;;5034872;28;19913;-86
2021/03/06 06:13:36;;;;;;;;;;;21.90;92.60;;;;;;5053172;28;19913;-87
2021/03/06 06:16:02;;;;;;;;;;;21.90;92.40;;;;;;5018528;28;19952;-88
2021/03/06 06:18:31;;;;;;;;;;;21.90;92.10;;;;;;5036678;28;19916;-84
2021/03/06 06:20:59;;;;;;;;;;;21.90;92.60;;;;;;5036763;28;20007;-82
2021/03/06 06:23:25;;;;;;;;;;;22.00;92.50;;;;;;5057431;28;19919;-90
2021/03/06 06:25:52;;;;;;;;;;;21.90;92.90;;;;;;5056187;28;19925;-88
2021/03/06 06:28:21;;;;;;;;;;;21.90;92.90;;;;;;5085947;28;19916;-80
2021/03/06 06:31:07;;;;;;;;;;;21.90;93.30;;;;;;5074303;28;19916;-83
2021/03/06 06:33:36;;;;;;;;;;;21.80;92.80;;;;;;5065595;28;19923;-83
2021/03/06 06:36:03;;;;;;;;;;;21.70;93.50;;;;;;5043871;28;19962;-83
2021/03/06 06:38:42;;;;;;;;;;;21.60;94.10;;;;;;5060283;28;19917;-83
2021/03/06 06:41:09;;;;;;;;;;;21.60;94.10;;;;;;5062389;28;19943;-85
2021/03/06 06:43:36;;;;;;;;;;;21.60;93.50;;;;;;5060812;28;20525;-81
2021/03/06 06:46:03;;;;;;;;;;;21.50;93.20;;;;;;5038149;28;20413;-83
2021/03/06 06:48:30;;;;;;;;;;;21.50;93.10;;;;;;5038745;28;20325;-83
2021/03/06 06:51:09;;;;;;;;;;;21.50;93.30;;;;;;5056531;28;20091;-81
2021/03/06 06:53:36;;;;;;;;;;;21.40;93.10;;;;;;5059691;28;19913;-82
2021/03/06 06:56:03;;;;;;;;;;;21.40;94.10;;;;;;5055524;28;19999;-81
2021/03/06 06:58:35;;;;;;;;;;;21.40;94.40;;;;;;5055286;28;19913;-81
2021/03/06 07:01:22;;;;;;;;;;;21.40;94.10;;;;;;5037532;28;20319;-81
2021/03/06 07:03:48;;;;;;;;;;;21.40;94.20;;;;;;5056098;28;19913;-80
2021/03/06 07:06:15;;;;;;;;;;;21.40;95.20;;;;;;5056095;28;19917;-87
2021/03/06 07:08:42;;;;;;;;;;;21.30;96.80;;;;;;5038157;28;19992;-82
2021/03/06 07:11:22;;;;;;;;;;;21.30;97.70;;;;;;5037587;28;19924;-80
2021/03/06 07:13:49;;;;;;;;;;;21.10;98.30;;;;;;5054750;28;19909;-81
2021/03/06 07:16:15;;;;;;;;;;;21.20;98.40;;;;;;5055125;28;20351;-81
2021/03/06 07:18:42;;;;;;;;;;;21.20;98.60;;;;;;5054973;28;20371;-83
2021/03/06 07:21:09;;;;;;;;;;;21.10;99.10;;;;;;5055386;28;19912;-80
2021/03/06 07:23:36;;;;;;;;;;;21.10;98.80;;;;;;5055162;28;19916;-84
2021/03/06 07:26:04;;;;;;;;;;;20.90;98.70;;;;;;5054668;28;19921;-83
2021/03/06 07:28:32;;;;;;;;;;;20.90;98.70;;;;;;5055302;28;19916;-83
2021/03/06 07:30:59;;;;;;;;;;;20.90;98.60;;;;;;5036671;28;19909;-80
2021/03/06 07:33:27;;;;;;;;;;;20.80;98.40;;;;;;5036997;28;20378;-81
2021/03/06 07:35:57;;;;;;;;;;;20.80;98.30;;;;;;5069188;28;19912;-82
2021/03/06 07:38:25;;;;;;;;;;;20.90;98.40;;;;;;5070345;28;19920;-84
2021/03/06 07:41:00;;;;;;;;;;;20.90;98.10;;;;;;5036847;28;19995;-83
2021/03/06 07:43:34;;;;;;;;;;;20.90;98.50;;;;;;5054309;28;20442;-82
2021/03/06 07:46:01;;;;;;;;;;;20.90;98.30;;;;;;5054291;28;20015;-83
2021/03/06 07:48:33;;;;;;;;;;;21.00;98.00;;;;;;5054449;28;20381;-82
2021/03/06 07:51:04;;;;;;;;;;;20.90;98.10;;;;;;5054166;28;19963;-83
2021/03/06 07:53:30;;;;;;;;;;;20.90;97.90;;;;;;5031108;28;19943;-81
2021/03/06 07:55:57;;;;;;;;;;;20.80;97.90;;;;;;5049391;28;19959;-81
2021/03/06 07:58:24;;;;;;;;;;;20.80;97.40;;;;;;5016306;28;19916;-83
2021/03/06 08:00:51;;;;;;;;;;;20.70;97.30;;;;;;5033554;28;19959;-82
2021/03/06 08:03:30;;;;;;;;;;;20.60;97.60;;;;;;5034337;28;20383;-83
2021/03/06 08:06:01;;;;;;;;;;;20.60;97.50;;;;;;5034318;28;19964;-82
2021/03/06 08:08:34;;;;;;;;;;;20.70;97.70;;;;;;5049544;28;19959;-81
2021/03/06 08:11:05;;;;;;;;;;;20.60;96.90;;;;;;5033900;28;19909;-82
2021/03/06 08:13:43;;;;;;;;;;;20.60;97.00;;;;;;5015839;28;19913;-82
2021/03/06 08:16:22;;;;;;;;;;;20.60;97.10;;;;;;5057843;28;19909;-80
2021/03/06 08:18:48;;;;;;;;;;;20.60;97.40;;;;;;5040197;28;19924;-81
2021/03/06 08:21:30;;;;;;;;;;;20.60;97.80;;;;;;5042406;28;19916;-84
2021/03/06 08:24:18;;;;;;;;;;;20.70;98.40;;;;;;5035628;28;19966;-82
2021/03/06 08:27:06;;;;;;;;;;;20.60;98.20;;;;;;5053745;28;20019;-83
2021/03/06 08:29:33;;;;;;;;;;;20.60;98.40;;;;;;5035426;28;19971;-85
2021/03/06 08:32:07;;;;;;;;;;;20.50;98.60;;;;;;5035429;28;19915;-83
2021/03/06 08:34:33;;;;;;;;;;;20.60;99.30;;;;;;5053741;28;19915;-82
2021/03/06 08:37:22;;;;;;;;;;;20.60;99.60;;;;;;5053828;28;19916;-81
2021/03/06 08:40:03;;;;;;;;;;;20.60;99.50;;;;;;5053386;28;19909;-84
2021/03/06 08:42:37;;;;;;;;;;;20.50;98.90;;;;;;5053131;28;19908;-83
2021/03/06 08:45:08;;;;;;;;;;;20.40;99.40;;;;;;5052215;28;19988;-82
2021/03/06 08:47:44;;;;;;;;;;;20.40;99.60;;;;;;5051987;28;19913;-83
2021/03/06 08:50:14;;;;;;;;;;;20.40;99.10;;;;;;5050708;28;19909;-83
2021/03/06 08:52:41;;;;;;;;;;;20.40;99.80;;;;;;5052704;28;19915;-84
2021/03/06 08:55:09;;;;;;;;;;;20.40;99.30;;;;;;5032076;28;20000;-82
2021/03/06 08:57:40;;;;;;;;;;;20.40;99.60;;;;;;5052548;28;19916;-83
2021/03/06 09:00:12;;;;;;;;;;;20.40;99.50;;;;;;5033577;28;20355;-82
2021/03/06 09:02:39;;;;;;;;;;;20.40;99.80;;;;;;5052890;28;19909;-82
2021/03/06 09:05:11;;;;;;;;;;;20.40;99.90;;;;;;5052748;28;19978;-82
2021/03/06 09:07:40;;;;;;;;;;;20.40;99.80;;;;;;5037184;28;19908;-86
2021/03/06 09:10:26;;;;;;;;;;;20.40;99.80;;;;;;5059827;28;19913;-85
2021/03/06 09:13:00;;;;;;;;;;;20.40;99.90;;;;;;5041429;28;19909;-83
2021/03/06 09:15:27;;;;;;;;;;;20.50;99.70;;;;;;5060333;28;19960;-83
2021/03/06 09:17:54;;;;;;;;;;;20.50;99.50;;;;;;5076111;28;19913;-85
2021/03/06 09:20:20;;;;;;;;;;;20.40;99.60;;;;;;5077520;28;19909;-83
2021/03/06 09:22:49;;;;;;;;;;;20.50;99.60;;;;;;5075257;28;19908;-82
2021/03/06 09:25:27;;;;;;;;;;;20.40;99.00;;;;;;5051504;28;20038;-82
2021/03/06 09:27:57;;;;;;;;;;;20.40;99.00;;;;;;5052981;28;19909;-84
2021/03/06 09:30:40;;;;;;;;;;;20.40;99.00;;;;;;5053022;28;19909;-83
2021/03/06 09:33:25;;;;;;;;;;;20.40;99.00;;;;;;5053089;28;20007;-84
2021/03/06 09:36:03;;;;;;;;;;;20.50;98.80;;;;;;5052731;28;19916;-83
2021/03/06 09:38:31;;;;;;;;;;;20.40;99.00;;;;;;5034568;28;20337;-82
2021/03/06 09:40:58;;;;;;;;;;;20.30;99.40;;;;;;5014840;28;19917;-84
2021/03/06 09:43:34;;;;;;;;;;;20.40;99.20;;;;;;5032168;28;20405;-84
2021/03/06 09:46:02;;;;;;;;;;;20.40;99.20;;;;;;5032103;28;19976;-84
2021/03/06 09:48:29;;;;;;;;;;;20.40;99.20;;;;;;5029431;28;19952;-83
2021/03/06 09:50:57;;;;;;;;;;;20.30;99.40;;;;;;5032692;28;20418;-84
2021/03/06 09:53:26;;;;;;;;;;;20.30;99.40;;;;;;5032316;28;20011;-84
2021/03/06 09:56:03;;;;;;;;;;;20.30;99.60;;;;;;5032186;28;19940;-80
2021/03/06 09:58:29;;;;;;;;;;;20.30;99.90;;;;;;5032044;28;20394;-85
2021/03/06 10:01:10;;;;;;;;;;;20.30;99.50;;;;;;5032605;28;19913;-81
2021/03/06 10:03:37;;;;;;;;;;;20.30;99.50;;;;;;5035330;28;19975;-85
2021/03/06 10:06:05;;;;;;;;;;;20.30;99.20;;;;;;5041135;28;20015;-84
2021/03/06 10:08:33;;;;;;;;;;;20.30;99.40;;;;;;5045243;28;19909;-83
2021/03/06 10:11:00;;;;;;;;;;;20.30;99.50;;;;;;5041039;28;19909;-83
2021/03/06 10:13:27;;;;;;;;;;;20.20;99.90;;;;;;5055853;28;19912;-83
2021/03/06 10:15:57;;;;;;;;;;;20.20;99.90;;;;;;5052399;28;20012;-79
2021/03/06 10:18:23;;;;;;;;;;;20.20;99.30;;;;;;5045847;28;19956;-81
2021/03/06 10:20:50;;;;;;;;;;;20.20;99.40;;;;;;5022842;28;19914;-84
2021/03/06 10:23:36;;;;;;;;;;;20.20;99.20;;;;;;5013707;28;19952;-87
2021/03/06 10:26:16;;;;;;;;;;;20.30;99.40;;;;;;5044755;28;20570;-83
2021/03/06 10:28:43;;;;;;;;;;;20.20;99.10;;;;;;5012666;28;19914;-85
2021/03/06 10:31:28;;;;;;;;;;;20.30;99.30;;;;;;5013741;28;20328;-84
2021/03/06 10:33:57;;;;;;;;;;;20.30;99.20;;;;;;5013523;28;20048;-87
2021/03/06 10:36:24;;;;;;;;;;;20.30;99.10;;;;;;5046108;28;19962;-87
2021/03/06 10:39:10;;;;;;;;;;;20.30;98.90;;;;;;5013421;28;20684;-86
2021/03/06 10:41:37;;;;;;;;;;;20.30;98.70;;;;;;5044799;28;19925;-85
2021/03/06 10:44:04;;;;;;;;;;;20.30;98.50;;;;;;5018237;28;19948;-86
2021/03/06 10:46:32;;;;;;;;;;;20.20;98.20;;;;;;5032149;28;20422;-85
2021/03/06 10:48:59;;;;;;;;;;;20.20;98.20;;;;;;5033197;28;20442;-85
2021/03/06 10:51:41;;;;;;;;;;;20.20;98.10;;;;;;5031836;28;20333;-85
2021/03/06 10:54:09;;;;;;;;;;;20.20;98.20;;;;;;5031491;28;20320;-85
2021/03/06 10:56:36;;;;;;;;;;;20.10;98.20;;;;;;5014924;28;19917;-86
2021/03/06 10:59:03;;;;;;;;;;;20.20;98.50;;;;;;5031042;28;19990;-85
2021/03/06 11:01:33;;;;;;;;;;;20.20;98.40;;;;;;5032943;28;19916;-87
2021/03/06 11:04:04;;;;;;;;;;;20.10;98.40;;;;;;5032268;28;19909;-86
2021/03/06 11:06:31;;;;;;;;;;;20.20;98.60;;;;;;5031151;28;19921;-87
2021/03/06 11:09:05;;;;;;;;;;;20.20;98.70;;;;;;5014032;28;19921;-87
2021/03/06 11:11:32;;;;;;;;;;;20.20;98.60;;;;;;5029673;28;19985;-86
2021/03/06 11:13:58;;;;;;;;;;;20.10;98.80;;;;;;5030339;28;19992;-88
2021/03/06 11:16:38;;;;;;;;;;;20.10;98.70;;;;;;5031785;28;19970;-88
2021/03/06 11:19:06;;;;;;;;;;;20.10;98.70;;;;;;5011375;28;19919;-85
2021/03/06 11:21:32;;;;;;;;;;;20.20;99.20;;;;;;5011629;28;20261;-85
2021/03/06 11:23:59;;;;;;;;;;;20.10;98.50;;;;;;5011331;28;19971;-85
2021/03/06 11:26:26;;;;;;;;;;;20.10;98.60;;;;;;5027686;28;20303;-85
2021/03/06 11:28:56;;;;;;;;;;;20.10;98.60;;;;;;5030064;28;19913;-85
2021/03/06 11:31:24;;;;;;;;;;;20.10;98.60;;;;;;5030628;28;19909;-85
2021/03/06 11:33:50;;;;;;;;;;;20.10;98.60;;;;;;5031840;28;20003;-85
2021/03/06 11:36:17;;;;;;;;;;;20.10;98.80;;;;;;5031968;28;19913;-87
2021/03/06 11:38:44;;;;;;;;;;;20.20;98.40;;;;;;5031922;28;19913;-86
2021/03/06 11:41:10;;;;;;;;;;;20.20;98.40;;;;;;5032280;28;19956;-88
2021/03/06 11:43:37;;;;;;;;;;;20.20;98.20;;;;;;5031656;28;19956;-85
2021/03/06 11:46:04;;;;;;;;;;;20.20;98.00;;;;;;5031835;28;19921;-85
2021/03/06 11:48:31;;;;;;;;;;;20.20;98.00;;;;;;5035245;28;19909;-86
2021/03/06 11:50:57;;;;;;;;;;;20.20;98.20;;;;;;5041948;28;19909;-85
2021/03/06 11:53:24;;;;;;;;;;;20.20;98.10;;;;;;5043424;28;19909;-87
2021/03/06 11:55:51;;;;;;;;;;;20.20;98.10;;;;;;5042150;28;19913;-85
2021/03/06 11:58:17;;;;;;;;;;;20.20;98.00;;;;;;5040187;28;19971;-88
2021/03/06 12:00:44;;;;;;;;;;;20.20;98.20;;;;;;5043360;28;19909;-86
2021/03/06 12:03:11;;;;;;;;;;;20.20;97.90;;;;;;5046583;28;19913;-84
2021/03/06 12:05:38;;;;;;;;;;;20.20;98.00;;;;;;5033035;28;19975;-87
2021/03/06 12:08:04;;;;;;;;;;;20.20;98.00;;;;;;5030603;28;19917;-85
2021/03/06 12:10:31;;;;;;;;;;;20.20;97.90;;;;;;5032203;28;19928;-89
2021/03/06 12:12:58;;;;;;;;;;;20.20;97.80;;;;;;5031177;28;19912;-87
2021/03/06 12:15:26;;;;;;;;;;;20.20;97.80;;;;;;5030378;28;19913;-86
2021/03/06 12:17:53;;;;;;;;;;;20.20;97.80;;;;;;5030849;28;19909;-84
2021/03/06 12:20:20;;;;;;;;;;;20.20;97.60;;;;;;5031367;28;19913;-85
2021/03/06 12:22:47;;;;;;;;;;;20.20;97.70;;;;;;5030951;28;20287;-85
2021/03/06 12:25:14;;;;;;;;;;;20.20;97.70;;;;;;5029815;28;19924;-83
2021/03/06 12:27:41;;;;;;;;;;;20.20;97.60;;;;;;5025599;28;20383;-85
2021/03/06 12:30:15;;;;;;;;;;;20.20;97.70;;;;;;5030836;28;20026;-85
2021/03/06 12:32:44;;;;;;;;;;;20.20;97.70;;;;;;5031161;28;19924;-86
2021/03/06 12:35:11;;;;;;;;;;;20.20;97.90;;;;;;5031412;28;19914;-85
2021/03/06 12:37:38;;;;;;;;;;;20.20;97.80;;;;;;5031631;28;19913;-86
2021/03/06 12:40:06;;;;;;;;;;;20.20;97.70;;;;;;5030460;28;20008;-87
2021/03/06 12:42:36;;;;;;;;;;;20.20;97.70;;;;;;5037095;28;19932;-84
2021/03/06 12:45:07;;;;;;;;;;;20.20;97.80;;;;;;5032640;28;19909;-86
2021/03/06 12:47:34;;;;;;;;;;;20.20;97.60;;;;;;5032104;28;19948;-82
2021/03/06 12:50:00;;;;;;;;;;;20.20;97.70;;;;;;5028716;28;19909;-85
2021/03/06 12:52:27;;;;;;;;;;;20.20;97.80;;;;;;5031128;28;19915;-85
2021/03/06 12:54:54;;;;;;;;;;;20.20;97.90;;;;;;5031054;28;19913;-85
2021/03/06 12:57:20;;;;;;;;;;;20.20;97.80;;;;;;5028858;28;19919;-83
2021/03/06 12:59:47;;;;;;;;;;;20.20;97.90;;;;;;5031080;28;20375;-85
2021/03/06 13:02:14;;;;;;;;;;;20.20;97.90;;;;;;5031212;28;20009;-85
2021/03/06 13:04:40;;;;;;;;;;;20.20;98.50;;;;;;5028784;28;19909;-83
2021/03/06 13:07:07;;;;;;;;;;;20.20;99.00;;;;;;5031061;28;19917;-85
2021/03/06 13:09:37;;;;;;;;;;;20.20;99.00;;;;;;5031446;28;20003;-86
2021/03/06 13:12:04;;;;;;;;;;;20.20;99.20;;;;;;5028806;28;19917;-85
2021/03/06 13:14:31;;;;;;;;;;;20.10;99.40;;;;;;5029398;28;19921;-85
2021/03/06 13:16:58;;;;;;;;;;;20.10;99.30;;;;;;5029830;28;20371;-84
2021/03/06 13:19:25;;;;;;;;;;;20.00;99.60;;;;;;5029712;28;19909;-84
2021/03/06 13:21:54;;;;;;;;;;;20.00;99.80;;;;;;5031008;28;20255;-82
2021/03/06 13:24:21;;;;;;;;;;;20.00;99.80;;;;;;5033445;28;19913;-84
2021/03/06 13:26:47;;;;;;;;;;;19.90;99.90;;;;;;5051245;28;20405;-80
2021/03/06 13:29:14;;;;;;;;;;;19.90;99.90;;;;;;5050048;28;19948;-80
2021/03/06 13:31:41;;;;;;;;;;;19.90;99.90;;;;;;5031049;28;19916;-81
2021/03/06 13:34:08;;;;;;;;;;;19.90;99.90;;;;;;5049233;28;19915;-81
2021/03/06 13:36:34;;;;;;;;;;;19.90;99.90;;;;;;5049348;28;19940;-84
2021/03/06 13:39:01;;;;;;;;;;;19.90;99.90;;;;;;5033213;28;19916;-81
2021/03/06 13:41:28;;;;;;;;;;;19.80;99.90;;;;;;5053179;28;19915;-83
2021/03/06 13:43:55;;;;;;;;;;;19.80;99.90;;;;;;5053964;28;19908;-82
2021/03/06 13:46:21;;;;;;;;;;;19.80;99.90;;;;;;5053676;28;19924;-79
2021/03/06 13:48:48;;;;;;;;;;;19.80;99.90;;;;;;5057301;28;19943;-82
2021/03/06 13:51:16;;;;;;;;;;;19.80;99.90;;;;;;5059476;28;19912;-80
2021/03/06 13:53:42;;;;;;;;;;;19.80;99.90;;;;;;5064370;28;20406;-79
2021/03/06 13:56:09;;;;;;;;;;;19.80;99.90;;;;;;5060276;28;19913;-81
2021/03/06 13:58:36;;;;;;;;;;;19.80;99.90;;;;;;5053940;28;19982;-79
2021/03/06 14:01:02;;;;;;;;;;;19.80;99.90;;;;;;5054411;28;20377;-81
2021/03/06 14:03:29;;;;;;;;;;;19.70;99.90;;;;;;5054689;28;19940;-82
2021/03/06 14:05:56;;;;;;;;;;;19.70;99.90;;;;;;5054230;28;19925;-82
2021/03/06 14:08:23;;;;;;;;;;;19.80;99.90;;;;;;5054215;28;19909;-81
2021/03/06 14:10:49;;;;;;;;;;;19.70;99.90;;;;;;5036351;28;19968;-82
2021/03/06 14:13:16;;;;;;;;;;;19.70;99.90;;;;;;5055920;28;20282;-79
2021/03/06 14:15:43;;;;;;;;;;;19.70;99.90;;;;;;5057741;28;20326;-80
2021/03/06 14:18:09;;;;;;;;;;;19.60;99.90;;;;;;5057975;28;19913;-82
2021/03/06 14:20:36;;;;;;;;;;;19.60;99.90;;;;;;5057987;28;20723;-81
2021/03/06 14:23:03;;;;;;;;;;;19.60;99.90;;;;;;5058080;28;19909;-82
2021/03/06 14:25:29;;;;;;;;;;;19.50;99.90;;;;;;5038381;28;19925;-81